KEKN/EKN METAR and TAF weather

Enter ICAO airport designator
Station Type Date Time Source
KEKN METAR 2018/01/19 16:51 UTC NOAA

KEKN 191651Z AUTO 20007KT 10SM CLR 02/M12 A3014 RMK AO2 SLP231 T00171122 TSNO


Station Type Date Time Source
KEKN Decoded METAR 2018/01/19 16:51 UTC NOAA

JENNINGS RANDOLPH FIELD, WV, United States (KEKN) 38-53N 079-51W 603M
Jan 19, 2018 - 11:51 AM EST / 2018.01.19 1651 UTC
Wind: from the SSW (200 degrees) at 8 MPH (7 KT):0
Visibility: 10 mile(s):0
Sky conditions: clear
Temperature: 35.1 F (1.7 C)
Dew Point: 10.0 F (-12.2 C)
Relative Humidity: 34%
Pressure (altimeter): 30.14 in. Hg (1020 hPa)
ob: KEKN 191651Z AUTO 20007KT 10SM CLR 02/M12 A3014 RMK AO2 SLP231 T00171122 TSNO
cycle: 17

Station Type Date Time Source
KEKN TAF 2018/01/19 18:30 UTC NOAA

TAF KEKN 191726Z 1918/2018 23008G18KT P6SM FEW250
FM200900 24005KT P6SM FEW030 WS020/24040KT
FM201300 24009G15KT P6SM SCT030


Example: see airport list